sensor_id;sensor_type;location;lat;lon;timestamp;P1;durP1;ratioP1;P2;durP2;ratioP2
19671;SDS011;9983;51.114;13.788;2023-01-19T00:00:06;15.03;;;8.23;;
19671;SDS011;9983;51.114;13.788;2023-01-19T00:05:09;16.37;;;8.83;;
19671;SDS011;9983;51.114;13.788;2023-01-19T00:10:10;15.47;;;8.83;;
19671;SDS011;9983;51.114;13.788;2023-01-19T00:15:10;14.47;;;8.90;;
19671;SDS011;9983;51.114;13.788;2023-01-19T00:20:11;12.90;;;7.27;;
19671;SDS011;9983;51.114;13.788;2023-01-19T00:25:12;13.53;;;8.23;;
19671;SDS011;9983;51.114;13.788;2023-01-19T00:30:12;15.77;;;8.60;;
19671;SDS011;9983;51.114;13.788;2023-01-19T00:35:12;11.30;;;7.60;;
19671;SDS011;9983;51.114;13.788;2023-01-19T00:40:12;12.77;;;8.33;;
19671;SDS011;9983;51.114;13.788;2023-01-19T00:45:16;18.03;;;9.13;;
19671;SDS011;9983;51.114;13.788;2023-01-19T00:50:18;12.80;;;7.43;;
19671;SDS011;9983;51.114;13.788;2023-01-19T00:55:19;14.60;;;7.30;;
19671;SDS011;9983;51.114;13.788;2023-01-19T01:00:20;13.10;;;7.67;;
19671;SDS011;9983;51.114;13.788;2023-01-19T01:05:21;10.87;;;7.13;;
19671;SDS011;9983;51.114;13.788;2023-01-19T01:10:22;12.93;;;7.10;;
19671;SDS011;9983;51.114;13.788;2023-01-19T01:15:25;13.97;;;7.53;;
19671;SDS011;9983;51.114;13.788;2023-01-19T01:20:26;18.03;;;7.97;;
19671;SDS011;9983;51.114;13.788;2023-01-19T01:25:27;13.17;;;6.50;;
19671;SDS011;9983;51.114;13.788;2023-01-19T01:30:29;10.63;;;6.80;;
19671;SDS011;9983;51.114;13.788;2023-01-19T01:35:30;11.63;;;6.53;;
19671;SDS011;9983;51.114;13.788;2023-01-19T01:40:33;13.40;;;7.03;;
19671;SDS011;9983;51.114;13.788;2023-01-19T01:45:35;11.50;;;6.83;;
19671;SDS011;9983;51.114;13.788;2023-01-19T01:50:40;11.27;;;7.03;;
19671;SDS011;9983;51.114;13.788;2023-01-19T01:56:15;10.30;;;6.70;;
19671;SDS011;9983;51.114;13.788;2023-01-19T02:01:20;8.37;;;5.67;;
19671;SDS011;9983;51.114;13.788;2023-01-19T02:06:39;13.63;;;6.83;;
19671;SDS011;9983;51.114;13.788;2023-01-19T02:11:58;12.03;;;6.87;;
19671;SDS011;9983;51.114;13.788;2023-01-19T02:17:17;13.33;;;6.57;;
19671;SDS011;9983;51.114;13.788;2023-01-19T02:22:32;14.67;;;6.57;;
19671;SDS011;9983;51.114;13.788;2023-01-19T02:27:39;11.93;;;6.37;;
19671;SDS011;9983;51.114;13.788;2023-01-19T02:32:40;10.77;;;6.53;;
19671;SDS011;9983;51.114;13.788;2023-01-19T02:37:40;11.83;;;7.00;;
19671;SDS011;9983;51.114;13.788;2023-01-19T02:42:49;10.83;;;6.53;;
19671;SDS011;9983;51.114;13.788;2023-01-19T02:47:53;11.93;;;7.03;;
19671;SDS011;9983;51.114;13.788;2023-01-19T02:52:54;12.73;;;6.67;;
19671;SDS011;9983;51.114;13.788;2023-01-19T02:58:10;9.90;;;6.17;;
19671;SDS011;9983;51.114;13.788;2023-01-19T03:09:00;10.57;;;5.57;;
19671;SDS011;9983;51.114;13.788;2023-01-19T03:14:05;8.47;;;5.63;;
19671;SDS011;9983;51.114;13.788;2023-01-19T03:19:09;12.07;;;6.03;;
19671;SDS011;9983;51.114;13.788;2023-01-19T03:24:16;6.30;;;4.73;;
19671;SDS011;9983;51.114;13.788;2023-01-19T03:29:19;9.67;;;5.63;;
19671;SDS011;9983;51.114;13.788;2023-01-19T03:34:22;11.40;;;5.77;;
19671;SDS011;9983;51.114;13.788;2023-01-19T03:39:23;7.83;;;5.57;;
19671;SDS011;9983;51.114;13.788;2023-01-19T03:44:25;9.20;;;5.33;;
19671;SDS011;9983;51.114;13.788;2023-01-19T03:49:29;8.87;;;5.63;;
19671;SDS011;9983;51.114;13.788;2023-01-19T03:54:30;10.50;;;5.80;;
19671;SDS011;9983;51.114;13.788;2023-01-19T03:59:31;9.17;;;4.80;;
19671;SDS011;9983;51.114;13.788;2023-01-19T04:04:31;10.50;;;5.37;;
19671;SDS011;9983;51.114;13.788;2023-01-19T04:09:31;11.33;;;5.60;;
19671;SDS011;9983;51.114;13.788;2023-01-19T04:14:31;11.83;;;5.40;;
19671;SDS011;9983;51.114;13.788;2023-01-19T04:19:32;7.47;;;4.93;;
19671;SDS011;9983;51.114;13.788;2023-01-19T04:24:32;8.47;;;4.93;;
19671;SDS011;9983;51.114;13.788;2023-01-19T04:29:32;6.70;;;4.73;;
19671;SDS011;9983;51.114;13.788;2023-01-19T04:34:32;10.00;;;4.73;;
19671;SDS011;9983;51.114;13.788;2023-01-19T04:39:33;7.53;;;4.67;;
19671;SDS011;9983;51.114;13.788;2023-01-19T04:44:33;9.33;;;5.07;;
19671;SDS011;9983;51.114;13.788;2023-01-19T04:49:34;8.77;;;4.63;;
19671;SDS011;9983;51.114;13.788;2023-01-19T04:54:36;9.30;;;4.67;;
19671;SDS011;9983;51.114;13.788;2023-01-19T04:59:36;8.47;;;4.77;;
19671;SDS011;9983;51.114;13.788;2023-01-19T05:04:37;7.97;;;4.23;;
19671;SDS011;9983;51.114;13.788;2023-01-19T05:09:37;6.93;;;4.63;;
19671;SDS011;9983;51.114;13.788;2023-01-19T05:14:37;8.20;;;4.70;;
19671;SDS011;9983;51.114;13.788;2023-01-19T05:19:37;8.60;;;4.53;;
19671;SDS011;9983;51.114;13.788;2023-01-19T05:24:38;7.43;;;4.40;;
19671;SDS011;9983;51.114;13.788;2023-01-19T05:29:38;8.90;;;3.97;;
19671;SDS011;9983;51.114;13.788;2023-01-19T05:34:38;8.07;;;4.60;;
19671;SDS011;9983;51.114;13.788;2023-01-19T05:39:39;8.20;;;4.27;;
19671;SDS011;9983;51.114;13.788;2023-01-19T05:44:39;9.03;;;3.97;;
19671;SDS011;9983;51.114;13.788;2023-01-19T05:49:39;7.43;;;3.73;;
19671;SDS011;9983;51.114;13.788;2023-01-19T05:54:40;8.30;;;4.60;;
19671;SDS011;9983;51.114;13.788;2023-01-19T05:59:40;5.77;;;3.73;;
19671;SDS011;9983;51.114;13.788;2023-01-19T06:04:40;4.90;;;3.10;;
19671;SDS011;9983;51.114;13.788;2023-01-19T06:09:40;6.27;;;4.03;;
19671;SDS011;9983;51.114;13.788;2023-01-19T06:14:41;6.23;;;3.93;;
19671;SDS011;9983;51.114;13.788;2023-01-19T06:19:41;4.53;;;3.03;;
19671;SDS011;9983;51.114;13.788;2023-01-19T06:24:41;5.85;;;3.17;;
19671;SDS011;9983;51.114;13.788;2023-01-19T06:29:41;5.17;;;2.60;;
19671;SDS011;9983;51.114;13.788;2023-01-19T06:34:42;6.73;;;3.70;;
19671;SDS011;9983;51.114;13.788;2023-01-19T06:39:42;5.03;;;3.07;;
19671;SDS011;9983;51.114;13.788;2023-01-19T06:44:44;7.40;;;3.97;;
19671;SDS011;9983;51.114;13.788;2023-01-19T06:49:46;5.23;;;3.10;;
19671;SDS011;9983;51.114;13.788;2023-01-19T06:54:47;6.30;;;3.20;;
19671;SDS011;9983;51.114;13.788;2023-01-19T06:59:48;5.83;;;3.20;;
19671;SDS011;9983;51.114;13.788;2023-01-19T07:04:48;3.73;;;2.63;;
19671;SDS011;9983;51.114;13.788;2023-01-19T07:09:48;6.63;;;3.97;;
19671;SDS011;9983;51.114;13.788;2023-01-19T07:14:48;5.00;;;2.87;;
19671;SDS011;9983;51.114;13.788;2023-01-19T07:19:49;5.63;;;3.03;;
19671;SDS011;9983;51.114;13.788;2023-01-19T07:24:49;4.13;;;2.50;;
19671;SDS011;9983;51.114;13.788;2023-01-19T07:29:49;4.13;;;2.70;;
19671;SDS011;9983;51.114;13.788;2023-01-19T07:34:50;5.17;;;2.63;;
19671;SDS011;9983;51.114;13.788;2023-01-19T07:39:50;5.07;;;2.40;;
19671;SDS011;9983;51.114;13.788;2023-01-19T07:44:50;3.33;;;2.50;;
19671;SDS011;9983;51.114;13.788;2023-01-19T07:49:50;3.90;;;2.40;;
19671;SDS011;9983;51.114;13.788;2023-01-19T07:54:51;4.67;;;2.30;;
19671;SDS011;9983;51.114;13.788;2023-01-19T07:59:51;3.87;;;2.50;;
19671;SDS011;9983;51.114;13.788;2023-01-19T08:04:52;2.80;;;2.20;;
19671;SDS011;9983;51.114;13.788;2023-01-19T08:09:52;4.00;;;2.47;;
19671;SDS011;9983;51.114;13.788;2023-01-19T08:14:52;2.60;;;2.07;;
19671;SDS011;9983;51.114;13.788;2023-01-19T08:19:53;2.97;;;2.00;;
19671;SDS011;9983;51.114;13.788;2023-01-19T08:24:53;6.40;;;2.10;;
19671;SDS011;9983;51.114;13.788;2023-01-19T08:29:53;2.90;;;2.10;;
19671;SDS011;9983;51.114;13.788;2023-01-19T08:34:54;4.17;;;2.33;;
19671;SDS011;9983;51.114;13.788;2023-01-19T08:39:54;2.97;;;1.80;;
19671;SDS011;9983;51.114;13.788;2023-01-19T08:44:55;3.53;;;2.40;;
19671;SDS011;9983;51.114;13.788;2023-01-19T08:49:55;3.10;;;2.53;;
19671;SDS011;9983;51.114;13.788;2023-01-19T08:54:55;3.53;;;2.13;;
19671;SDS011;9983;51.114;13.788;2023-01-19T08:59:55;2.73;;;2.10;;
19671;SDS011;9983;51.114;13.788;2023-01-19T09:04:56;3.73;;;2.47;;
19671;SDS011;9983;51.114;13.788;2023-01-19T09:09:56;2.77;;;2.40;;
19671;SDS011;9983;51.114;13.788;2023-01-19T09:14:56;4.30;;;2.53;;
19671;SDS011;9983;51.114;13.788;2023-01-19T09:19:56;3.17;;;2.80;;
19671;SDS011;9983;51.114;13.788;2023-01-19T09:24:57;2.70;;;2.50;;
19671;SDS011;9983;51.114;13.788;2023-01-19T09:29:57;2.73;;;2.53;;
19671;SDS011;9983;51.114;13.788;2023-01-19T09:34:57;5.30;;;3.20;;
19671;SDS011;9983;51.114;13.788;2023-01-19T09:39:58;3.17;;;2.80;;
19671;SDS011;9983;51.114;13.788;2023-01-19T09:44:58;6.82;;;3.10;;
19671;SDS011;9983;51.114;13.788;2023-01-19T09:50:04;4.70;;;3.10;;
19671;SDS011;9983;51.114;13.788;2023-01-19T09:55:16;3.83;;;3.42;;
19671;SDS011;9983;51.114;13.788;2023-01-19T10:00:25;4.60;;;2.88;;
19671;SDS011;9983;51.114;13.788;2023-01-19T10:05:41;3.40;;;2.88;;
19671;SDS011;9983;51.114;13.788;2023-01-19T10:10:46;3.22;;;2.40;;
19671;SDS011;9983;51.114;13.788;2023-01-19T10:16:00;5.63;;;2.95;;
19671;SDS011;9983;51.114;13.788;2023-01-19T10:21:09;3.15;;;2.58;;
19671;SDS011;9983;51.114;13.788;2023-01-19T10:26:19;4.93;;;2.78;;
19671;SDS011;9983;51.114;13.788;2023-01-19T10:31:23;5.25;;;3.28;;
19671;SDS011;9983;51.114;13.788;2023-01-19T10:36:27;5.05;;;3.28;;
19671;SDS011;9983;51.114;13.788;2023-01-19T10:41:41;3.38;;;2.83;;
19671;SDS011;9983;51.114;13.788;2023-01-19T10:46:45;3.60;;;2.85;;
19671;SDS011;9983;51.114;13.788;2023-01-19T10:51:47;5.05;;;3.10;;
19671;SDS011;9983;51.114;13.788;2023-01-19T10:56:55;5.07;;;3.45;;
19671;SDS011;9983;51.114;13.788;2023-01-19T11:07:17;3.58;;;2.95;;
19671;SDS011;9983;51.114;13.788;2023-01-19T11:12:20;4.32;;;3.05;;
19671;SDS011;9983;51.114;13.788;2023-01-19T11:17:23;3.83;;;3.00;;
19671;SDS011;9983;51.114;13.788;2023-01-19T11:22:25;4.53;;;2.97;;
19671;SDS011;9983;51.114;13.788;2023-01-19T11:27:28;3.17;;;2.83;;
19671;SDS011;9983;51.114;13.788;2023-01-19T11:32:31;5.40;;;3.90;;
19671;SDS011;9983;51.114;13.788;2023-01-19T11:37:33;3.63;;;3.22;;
19671;SDS011;9983;51.114;13.788;2023-01-19T11:42:33;6.47;;;3.60;;
19671;SDS011;9983;51.114;13.788;2023-01-19T11:47:43;4.75;;;3.75;;
19671;SDS011;9983;51.114;13.788;2023-01-19T11:53:15;6.07;;;4.22;;
19671;SDS011;9983;51.114;13.788;2023-01-19T11:58:21;5.03;;;3.40;;
19671;SDS011;9983;51.114;13.788;2023-01-19T12:03:27;4.32;;;3.58;;
19671;SDS011;9983;51.114;13.788;2023-01-19T12:08:35;7.00;;;3.70;;
19671;SDS011;9983;51.114;13.788;2023-01-19T12:13:41;3.45;;;3.03;;
19671;SDS011;9983;51.114;13.788;2023-01-19T12:18:43;4.70;;;3.50;;
19671;SDS011;9983;51.114;13.788;2023-01-19T12:29:26;5.55;;;3.20;;
19671;SDS011;9983;51.114;13.788;2023-01-19T12:34:39;3.70;;;3.00;;
19671;SDS011;9983;51.114;13.788;2023-01-19T12:39:47;3.80;;;3.22;;
19671;SDS011;9983;51.114;13.788;2023-01-19T12:44:47;5.05;;;3.63;;
19671;SDS011;9983;51.114;13.788;2023-01-19T12:50:12;6.15;;;3.80;;
19671;SDS011;9983;51.114;13.788;2023-01-19T12:55:19;5.13;;;3.47;;
19671;SDS011;9983;51.114;13.788;2023-01-19T13:00:46;5.45;;;3.35;;
19671;SDS011;9983;51.114;13.788;2023-01-19T13:05:51;3.45;;;2.95;;
19671;SDS011;9983;51.114;13.788;2023-01-19T13:21:28;4.47;;;2.85;;
19671;SDS011;9983;51.114;13.788;2023-01-19T13:26:32;4.07;;;3.25;;
19671;SDS011;9983;51.114;13.788;2023-01-19T13:31:34;3.75;;;2.78;;
19671;SDS011;9983;51.114;13.788;2023-01-19T13:36:37;3.30;;;3.00;;
19671;SDS011;9983;51.114;13.788;2023-01-19T13:41:43;4.10;;;3.25;;
19671;SDS011;9983;51.114;13.788;2023-01-19T13:46:45;4.18;;;3.10;;
19671;SDS011;9983;51.114;13.788;2023-01-19T13:57:24;2.60;;;2.30;;
19671;SDS011;9983;51.114;13.788;2023-01-19T14:02:24;3.75;;;2.53;;
19671;SDS011;9983;51.114;13.788;2023-01-19T14:07:25;3.72;;;3.15;;
19671;SDS011;9983;51.114;13.788;2023-01-19T14:12:25;6.03;;;3.88;;
19671;SDS011;9983;51.114;13.788;2023-01-19T14:17:29;5.05;;;3.33;;
19671;SDS011;9983;51.114;13.788;2023-01-19T14:22:36;5.07;;;3.60;;
19671;SDS011;9983;51.114;13.788;2023-01-19T14:27:41;3.88;;;3.40;;
19671;SDS011;9983;51.114;13.788;2023-01-19T14:32:44;5.45;;;3.95;;
19671;SDS011;9983;51.114;13.788;2023-01-19T14:37:46;6.50;;;3.90;;
19671;SDS011;9983;51.114;13.788;2023-01-19T14:42:53;5.78;;;4.38;;
19671;SDS011;9983;51.114;13.788;2023-01-19T14:47:57;5.78;;;4.85;;
19671;SDS011;9983;51.114;13.788;2023-01-19T14:53:04;6.68;;;4.93;;
19671;SDS011;9983;51.114;13.788;2023-01-19T14:58:10;11.70;;;7.65;;
19671;SDS011;9983;51.114;13.788;2023-01-19T15:03:11;8.07;;;5.03;;
19671;SDS011;9983;51.114;13.788;2023-01-19T15:08:14;6.30;;;4.43;;
19671;SDS011;9983;51.114;13.788;2023-01-19T15:13:17;7.47;;;5.85;;
19671;SDS011;9983;51.114;13.788;2023-01-19T15:18:21;5.57;;;4.25;;
19671;SDS011;9983;51.114;13.788;2023-01-19T15:23:24;6.30;;;5.10;;
19671;SDS011;9983;51.114;13.788;2023-01-19T15:28:25;5.88;;;4.40;;
19671;SDS011;9983;51.114;13.788;2023-01-19T15:33:26;8.13;;;5.65;;
19671;SDS011;9983;51.114;13.788;2023-01-19T15:38:29;7.95;;;5.10;;
19671;SDS011;9983;51.114;13.788;2023-01-19T15:43:29;7.38;;;4.75;;
19671;SDS011;9983;51.114;13.788;2023-01-19T15:48:30;7.10;;;5.20;;
19671;SDS011;9983;51.114;13.788;2023-01-19T15:53:30;6.18;;;4.90;;
19671;SDS011;9983;51.114;13.788;2023-01-19T15:58:30;7.15;;;5.03;;
19671;SDS011;9983;51.114;13.788;2023-01-19T16:03:30;6.93;;;4.50;;
19671;SDS011;9983;51.114;13.788;2023-01-19T16:08:31;7.25;;;5.22;;
19671;SDS011;9983;51.114;13.788;2023-01-19T16:13:31;8.50;;;4.95;;
19671;SDS011;9983;51.114;13.788;2023-01-19T16:18:32;5.57;;;4.78;;
19671;SDS011;9983;51.114;13.788;2023-01-19T16:23:32;6.13;;;5.07;;
19671;SDS011;9983;51.114;13.788;2023-01-19T16:28:33;6.70;;;5.00;;
19671;SDS011;9983;51.114;13.788;2023-01-19T16:33:34;6.45;;;4.63;;
19671;SDS011;9983;51.114;13.788;2023-01-19T16:38:34;7.78;;;5.40;;
19671;SDS011;9983;51.114;13.788;2023-01-19T16:43:35;7.30;;;4.63;;
19671;SDS011;9983;51.114;13.788;2023-01-19T16:48:35;6.05;;;3.78;;
19671;SDS011;9983;51.114;13.788;2023-01-19T16:53:35;7.43;;;5.25;;
19671;SDS011;9983;51.114;13.788;2023-01-19T16:58:35;5.35;;;4.82;;
19671;SDS011;9983;51.114;13.788;2023-01-19T17:03:37;5.28;;;4.05;;
19671;SDS011;9983;51.114;13.788;2023-01-19T17:08:38;5.05;;;3.47;;
19671;SDS011;9983;51.114;13.788;2023-01-19T17:13:39;5.47;;;3.67;;
19671;SDS011;9983;51.114;13.788;2023-01-19T17:18:39;6.15;;;4.55;;
19671;SDS011;9983;51.114;13.788;2023-01-19T17:23:43;4.88;;;4.20;;
19671;SDS011;9983;51.114;13.788;2023-01-19T17:28:45;6.40;;;4.57;;
19671;SDS011;9983;51.114;13.788;2023-01-19T17:33:47;6.72;;;5.18;;
19671;SDS011;9983;51.114;13.788;2023-01-19T17:38:48;4.63;;;4.15;;
19671;SDS011;9983;51.114;13.788;2023-01-19T17:43:49;7.05;;;4.47;;
19671;SDS011;9983;51.114;13.788;2023-01-19T17:48:54;5.18;;;4.22;;
19671;SDS011;9983;51.114;13.788;2023-01-19T17:53:56;8.18;;;3.90;;
19671;SDS011;9983;51.114;13.788;2023-01-19T17:58:57;3.53;;;3.13;;
19671;SDS011;9983;51.114;13.788;2023-01-19T18:03:58;5.57;;;4.00;;
19671;SDS011;9983;51.114;13.788;2023-01-19T18:08:59;5.60;;;3.40;;
19671;SDS011;9983;51.114;13.788;2023-01-19T18:14:00;4.10;;;3.08;;
19671;SDS011;9983;51.114;13.788;2023-01-19T18:19:01;6.53;;;3.80;;
19671;SDS011;9983;51.114;13.788;2023-01-19T18:24:02;4.88;;;4.28;;
19671;SDS011;9983;51.114;13.788;2023-01-19T18:29:04;5.50;;;4.18;;
19671;SDS011;9983;51.114;13.788;2023-01-19T18:34:04;5.68;;;4.38;;
19671;SDS011;9983;51.114;13.788;2023-01-19T18:39:05;6.53;;;4.07;;
19671;SDS011;9983;51.114;13.788;2023-01-19T18:44:05;5.75;;;4.28;;
19671;SDS011;9983;51.114;13.788;2023-01-19T18:49:05;6.50;;;4.50;;
19671;SDS011;9983;51.114;13.788;2023-01-19T18:54:06;6.68;;;4.45;;
19671;SDS011;9983;51.114;13.788;2023-01-19T18:59:06;7.00;;;5.18;;
19671;SDS011;9983;51.114;13.788;2023-01-19T19:04:07;9.18;;;5.45;;
19671;SDS011;9983;51.114;13.788;2023-01-19T19:09:07;6.25;;;5.03;;
19671;SDS011;9983;51.114;13.788;2023-01-19T19:14:08;7.80;;;4.80;;
19671;SDS011;9983;51.114;13.788;2023-01-19T19:19:08;3.60;;;3.30;;
19671;SDS011;9983;51.114;13.788;2023-01-19T19:24:10;6.00;;;3.72;;
19671;SDS011;9983;51.114;13.788;2023-01-19T19:29:12;4.97;;;3.75;;
19671;SDS011;9983;51.114;13.788;2023-01-19T19:34:12;5.05;;;4.10;;
19671;SDS011;9983;51.114;13.788;2023-01-19T19:39:13;6.18;;;4.45;;
19671;SDS011;9983;51.114;13.788;2023-01-19T19:44:13;5.13;;;4.03;;
19671;SDS011;9983;51.114;13.788;2023-01-19T19:49:13;5.07;;;4.18;;
19671;SDS011;9983;51.114;13.788;2023-01-19T19:54:16;6.68;;;4.85;;
19671;SDS011;9983;51.114;13.788;2023-01-19T19:59:17;5.53;;;4.07;;
19671;SDS011;9983;51.114;13.788;2023-01-19T20:04:17;6.07;;;3.75;;
19671;SDS011;9983;51.114;13.788;2023-01-19T20:09:20;5.93;;;3.90;;
19671;SDS011;9983;51.114;13.788;2023-01-19T20:14:20;4.95;;;3.95;;
19671;SDS011;9983;51.114;13.788;2023-01-19T20:19:21;7.43;;;4.97;;
19671;SDS011;9983;51.114;13.788;2023-01-19T20:24:21;6.30;;;4.88;;
19671;SDS011;9983;51.114;13.788;2023-01-19T20:29:22;4.97;;;3.72;;
19671;SDS011;9983;51.114;13.788;2023-01-19T20:34:24;5.38;;;4.25;;
19671;SDS011;9983;51.114;13.788;2023-01-19T20:39:27;6.18;;;4.57;;
19671;SDS011;9983;51.114;13.788;2023-01-19T20:44:31;5.05;;;3.97;;
19671;SDS011;9983;51.114;13.788;2023-01-19T20:49:32;7.50;;;5.20;;
19671;SDS011;9983;51.114;13.788;2023-01-19T20:54:32;6.35;;;4.25;;
19671;SDS011;9983;51.114;13.788;2023-01-19T20:59:32;5.93;;;4.00;;
19671;SDS011;9983;51.114;13.788;2023-01-19T21:04:35;4.55;;;4.03;;
19671;SDS011;9983;51.114;13.788;2023-01-19T21:09:36;4.70;;;3.92;;
19671;SDS011;9983;51.114;13.788;2023-01-19T21:14:37;6.25;;;5.30;;
19671;SDS011;9983;51.114;13.788;2023-01-19T21:19:39;7.03;;;5.00;;
19671;SDS011;9983;51.114;13.788;2023-01-19T21:24:39;4.88;;;4.38;;
19671;SDS011;9983;51.114;13.788;2023-01-19T21:29:39;4.80;;;3.88;;
19671;SDS011;9983;51.114;13.788;2023-01-19T21:34:41;3.90;;;3.50;;
19671;SDS011;9983;51.114;13.788;2023-01-19T21:39:43;3.95;;;3.55;;
19671;SDS011;9983;51.114;13.788;2023-01-19T21:44:43;4.13;;;3.53;;
19671;SDS011;9983;51.114;13.788;2023-01-19T21:49:43;5.68;;;3.65;;
19671;SDS011;9983;51.114;13.788;2023-01-19T21:54:43;5.70;;;4.57;;
19671;SDS011;9983;51.114;13.788;2023-01-19T21:59:44;5.45;;;3.85;;
19671;SDS011;9983;51.114;13.788;2023-01-19T22:04:44;4.50;;;3.85;;
19671;SDS011;9983;51.114;13.788;2023-01-19T22:09:45;8.07;;;6.22;;
19671;SDS011;9983;51.114;13.788;2023-01-19T22:14:47;4.20;;;3.45;;
19671;SDS011;9983;51.114;13.788;2023-01-19T22:19:47;5.10;;;4.05;;
19671;SDS011;9983;51.114;13.788;2023-01-19T22:24:50;4.22;;;3.83;;
19671;SDS011;9983;51.114;13.788;2023-01-19T22:29:51;5.18;;;3.95;;
19671;SDS011;9983;51.114;13.788;2023-01-19T22:34:51;5.35;;;3.88;;
19671;SDS011;9983;51.114;13.788;2023-01-19T22:39:51;5.97;;;4.30;;
19671;SDS011;9983;51.114;13.788;2023-01-19T22:44:52;5.70;;;4.32;;
19671;SDS011;9983;51.114;13.788;2023-01-19T22:49:52;5.10;;;3.60;;
19671;SDS011;9983;51.114;13.788;2023-01-19T22:54:52;5.13;;;3.80;;
19671;SDS011;9983;51.114;13.788;2023-01-19T22:59:55;3.65;;;3.30;;
19671;SDS011;9983;51.114;13.788;2023-01-19T23:04:55;5.47;;;3.83;;
19671;SDS011;9983;51.114;13.788;2023-01-19T23:09:55;4.80;;;3.88;;
19671;SDS011;9983;51.114;13.788;2023-01-19T23:14:56;4.95;;;3.47;;
19671;SDS011;9983;51.114;13.788;2023-01-19T23:19:56;4.30;;;3.80;;
19671;SDS011;9983;51.114;13.788;2023-01-19T23:24:56;7.20;;;3.95;;
19671;SDS011;9983;51.114;13.788;2023-01-19T23:29:56;5.10;;;4.03;;
19671;SDS011;9983;51.114;13.788;2023-01-19T23:34:57;5.55;;;4.00;;
19671;SDS011;9983;51.114;13.788;2023-01-19T23:39:57;9.93;;;5.95;;
19671;SDS011;9983;51.114;13.788;2023-01-19T23:44:57;4.68;;;3.90;;
19671;SDS011;9983;51.114;13.788;2023-01-19T23:49:57;4.18;;;3.70;;
19671;SDS011;9983;51.114;13.788;2023-01-19T23:54:58;8.48;;;6.80;;
19671;SDS011;9983;51.114;13.788;2023-01-19T23:59:58;7.65;;;4.85;;
